sensor_id;sensor_type;location;lat;lon;timestamp;P1;durP1;ratioP1;P2;durP2;ratioP2
18322;SDS011;9287;49.456;11.064;2023-05-14T00:00:32;9.93;;;8.23;;
18322;SDS011;9287;49.456;11.064;2023-05-14T00:03:08;8.77;;;7.97;;
18322;SDS011;9287;49.456;11.064;2023-05-14T00:05:39;8.50;;;7.70;;
18322;SDS011;9287;49.456;11.064;2023-05-14T00:08:09;10.57;;;8.20;;
18322;SDS011;9287;49.456;11.064;2023-05-14T00:10:37;9.40;;;8.47;;
18322;SDS011;9287;49.456;11.064;2023-05-14T00:13:07;9.17;;;8.37;;
18322;SDS011;9287;49.456;11.064;2023-05-14T00:15:41;8.20;;;7.40;;
18322;SDS011;9287;49.456;11.064;2023-05-14T00:18:16;8.40;;;7.67;;
18322;SDS011;9287;49.456;11.064;2023-05-14T00:20:52;9.40;;;8.40;;
18322;SDS011;9287;49.456;11.064;2023-05-14T00:23:22;8.70;;;7.90;;
18322;SDS011;9287;49.456;11.064;2023-05-14T00:25:51;9.07;;;8.27;;
18322;SDS011;9287;49.456;11.064;2023-05-14T00:28:19;8.30;;;7.43;;
18322;SDS011;9287;49.456;11.064;2023-05-14T00:30:47;8.70;;;7.90;;
18322;SDS011;9287;49.456;11.064;2023-05-14T00:33:16;7.90;;;7.20;;
18322;SDS011;9287;49.456;11.064;2023-05-14T00:35:44;7.57;;;6.83;;
18322;SDS011;9287;49.456;11.064;2023-05-14T00:38:12;9.17;;;7.27;;
18322;SDS011;9287;49.456;11.064;2023-05-14T00:40:43;8.03;;;7.33;;
18322;SDS011;9287;49.456;11.064;2023-05-14T00:43:16;8.60;;;7.03;;
18322;SDS011;9287;49.456;11.064;2023-05-14T00:45:44;7.70;;;6.83;;
18322;SDS011;9287;49.456;11.064;2023-05-14T00:48:12;8.77;;;7.90;;
18322;SDS011;9287;49.456;11.064;2023-05-14T00:50:48;7.37;;;6.67;;
18322;SDS011;9287;49.456;11.064;2023-05-14T00:53:18;8.87;;;7.97;;
18322;SDS011;9287;49.456;11.064;2023-05-14T00:55:48;8.50;;;7.43;;
18322;SDS011;9287;49.456;11.064;2023-05-14T00:58:17;8.30;;;7.50;;
18322;SDS011;9287;49.456;11.064;2023-05-14T01:00:46;7.87;;;7.07;;
18322;SDS011;9287;49.456;11.064;2023-05-14T01:03:14;7.77;;;7.07;;
18322;SDS011;9287;49.456;11.064;2023-05-14T01:05:46;7.87;;;7.07;;
18322;SDS011;9287;49.456;11.064;2023-05-14T01:08:24;8.20;;;7.40;;
18322;SDS011;9287;49.456;11.064;2023-05-14T01:11:00;8.40;;;7.50;;
18322;SDS011;9287;49.456;11.064;2023-05-14T01:13:36;8.83;;;7.63;;
18322;SDS011;9287;49.456;11.064;2023-05-14T01:16:19;8.43;;;7.63;;
18322;SDS011;9287;49.456;11.064;2023-05-14T01:18:48;8.73;;;7.93;;
18322;SDS011;9287;49.456;11.064;2023-05-14T01:21:23;8.73;;;7.83;;
18322;SDS011;9287;49.456;11.064;2023-05-14T01:23:51;9.10;;;8.20;;
18322;SDS011;9287;49.456;11.064;2023-05-14T01:26:19;9.33;;;6.90;;
18322;SDS011;9287;49.456;11.064;2023-05-14T01:28:49;8.60;;;7.80;;
18322;SDS011;9287;49.456;11.064;2023-05-14T01:31:19;8.80;;;7.90;;
18322;SDS011;9287;49.456;11.064;2023-05-14T01:33:54;8.83;;;7.97;;
18322;SDS011;9287;49.456;11.064;2023-05-14T01:36:26;9.13;;;8.20;;
18322;SDS011;9287;49.456;11.064;2023-05-14T01:38:56;8.00;;;7.30;;
18322;SDS011;9287;49.456;11.064;2023-05-14T01:41:25;7.60;;;7.00;;
18322;SDS011;9287;49.456;11.064;2023-05-14T01:43:55;8.60;;;7.77;;
18322;SDS011;9287;49.456;11.064;2023-05-14T01:46:24;8.20;;;7.43;;
18322;SDS011;9287;49.456;11.064;2023-05-14T01:48:52;8.67;;;7.87;;
18322;SDS011;9287;49.456;11.064;2023-05-14T01:51:20;8.40;;;7.70;;
18322;SDS011;9287;49.456;11.064;2023-05-14T01:53:51;10.50;;;7.17;;
18322;SDS011;9287;49.456;11.064;2023-05-14T01:56:22;8.30;;;7.43;;
18322;SDS011;9287;49.456;11.064;2023-05-14T01:58:51;8.00;;;7.30;;
18322;SDS011;9287;49.456;11.064;2023-05-14T02:01:19;7.80;;;7.10;;
18322;SDS011;9287;49.456;11.064;2023-05-14T02:03:47;9.27;;;8.20;;
18322;SDS011;9287;49.456;11.064;2023-05-14T02:06:17;8.93;;;7.67;;
18322;SDS011;9287;49.456;11.064;2023-05-14T02:08:48;8.03;;;7.33;;
18322;SDS011;9287;49.456;11.064;2023-05-14T02:11:18;8.80;;;7.73;;
18322;SDS011;9287;49.456;11.064;2023-05-14T02:13:46;8.43;;;7.53;;
18322;SDS011;9287;49.456;11.064;2023-05-14T02:16:13;7.70;;;7.00;;
18322;SDS011;9287;49.456;11.064;2023-05-14T02:18:41;7.80;;;7.10;;
18322;SDS011;9287;49.456;11.064;2023-05-14T02:21:09;7.70;;;6.97;;
18322;SDS011;9287;49.456;11.064;2023-05-14T02:23:37;7.47;;;6.77;;
18322;SDS011;9287;49.456;11.064;2023-05-14T02:26:07;8.23;;;6.70;;
18322;SDS011;9287;49.456;11.064;2023-05-14T02:28:37;7.07;;;6.47;;
18322;SDS011;9287;49.456;11.064;2023-05-14T02:31:05;7.23;;;6.63;;
18322;SDS011;9287;49.456;11.064;2023-05-14T02:33:33;7.37;;;6.67;;
18322;SDS011;9287;49.456;11.064;2023-05-14T02:36:01;7.13;;;6.50;;
18322;SDS011;9287;49.456;11.064;2023-05-14T02:38:32;7.90;;;6.57;;
18322;SDS011;9287;49.456;11.064;2023-05-14T02:41:00;7.63;;;6.60;;
18322;SDS011;9287;49.456;11.064;2023-05-14T02:43:28;5.60;;;5.10;;
18322;SDS011;9287;49.456;11.064;2023-05-14T02:45:57;7.10;;;6.40;;
18322;SDS011;9287;49.456;11.064;2023-05-14T02:48:27;7.03;;;6.43;;
18322;SDS011;9287;49.456;11.064;2023-05-14T02:50:59;7.03;;;6.27;;
18322;SDS011;9287;49.456;11.064;2023-05-14T02:53:32;6.47;;;5.93;;
18322;SDS011;9287;49.456;11.064;2023-05-14T02:56:00;6.83;;;6.23;;
18322;SDS011;9287;49.456;11.064;2023-05-14T02:58:31;7.20;;;5.80;;
18322;SDS011;9287;49.456;11.064;2023-05-14T03:01:04;7.13;;;6.47;;
18322;SDS011;9287;49.456;11.064;2023-05-14T03:03:36;6.67;;;6.17;;
18322;SDS011;9287;49.456;11.064;2023-05-14T03:06:10;6.67;;;6.00;;
18322;SDS011;9287;49.456;11.064;2023-05-14T03:08:38;8.23;;;6.43;;
18322;SDS011;9287;49.456;11.064;2023-05-14T03:11:07;6.07;;;5.57;;
18322;SDS011;9287;49.456;11.064;2023-05-14T03:13:35;6.37;;;5.77;;
18322;SDS011;9287;49.456;11.064;2023-05-14T03:16:05;5.77;;;5.27;;
18322;SDS011;9287;49.456;11.064;2023-05-14T03:18:33;6.27;;;5.67;;
18322;SDS011;9287;49.456;11.064;2023-05-14T03:21:02;6.30;;;5.70;;
18322;SDS011;9287;49.456;11.064;2023-05-14T03:23:30;6.13;;;5.63;;
18322;SDS011;9287;49.456;11.064;2023-05-14T03:26:00;6.37;;;5.80;;
18322;SDS011;9287;49.456;11.064;2023-05-14T03:28:29;6.87;;;6.13;;
18322;SDS011;9287;49.456;11.064;2023-05-14T03:30:58;7.30;;;6.70;;
18322;SDS011;9287;49.456;11.064;2023-05-14T03:33:27;7.00;;;6.50;;
18322;SDS011;9287;49.456;11.064;2023-05-14T03:35:57;9.60;;;6.60;;
18322;SDS011;9287;49.456;11.064;2023-05-14T03:38:25;6.83;;;6.10;;
18322;SDS011;9287;49.456;11.064;2023-05-14T03:40:55;6.47;;;5.93;;
18322;SDS011;9287;49.456;11.064;2023-05-14T03:43:24;6.57;;;5.97;;
18322;SDS011;9287;49.456;11.064;2023-05-14T03:45:52;6.57;;;6.07;;
18322;SDS011;9287;49.456;11.064;2023-05-14T03:48:23;5.70;;;5.30;;
18322;SDS011;9287;49.456;11.064;2023-05-14T03:50:54;6.97;;;6.00;;
18322;SDS011;9287;49.456;11.064;2023-05-14T03:53:22;6.63;;;6.10;;
18322;SDS011;9287;49.456;11.064;2023-05-14T03:55:50;6.70;;;6.20;;
18322;SDS011;9287;49.456;11.064;2023-05-14T03:58:19;6.27;;;5.77;;
18322;SDS011;9287;49.456;11.064;2023-05-14T04:00:49;6.03;;;5.53;;
18322;SDS011;9287;49.456;11.064;2023-05-14T04:03:16;6.23;;;5.60;;
18322;SDS011;9287;49.456;11.064;2023-05-14T04:05:45;6.43;;;5.93;;
18322;SDS011;9287;49.456;11.064;2023-05-14T04:08:15;6.40;;;5.83;;
18322;SDS011;9287;49.456;11.064;2023-05-14T04:10:43;6.07;;;5.43;;
18322;SDS011;9287;49.456;11.064;2023-05-14T04:13:11;6.33;;;5.73;;
18322;SDS011;9287;49.456;11.064;2023-05-14T04:15:40;6.40;;;5.40;;
18322;SDS011;9287;49.456;11.064;2023-05-14T04:18:09;6.60;;;6.00;;
18322;SDS011;9287;49.456;11.064;2023-05-14T04:20:38;7.33;;;6.53;;
18322;SDS011;9287;49.456;11.064;2023-05-14T04:23:09;6.27;;;5.73;;
18322;SDS011;9287;49.456;11.064;2023-05-14T04:25:39;6.87;;;6.27;;
18322;SDS011;9287;49.456;11.064;2023-05-14T04:28:07;7.30;;;6.60;;
18322;SDS011;9287;49.456;11.064;2023-05-14T04:30:39;6.47;;;5.90;;
18322;SDS011;9287;49.456;11.064;2023-05-14T04:33:07;7.47;;;6.80;;
18322;SDS011;9287;49.456;11.064;2023-05-14T04:35:37;6.33;;;5.73;;
18322;SDS011;9287;49.456;11.064;2023-05-14T04:38:08;6.43;;;5.83;;
18322;SDS011;9287;49.456;11.064;2023-05-14T04:40:37;6.20;;;5.70;;
18322;SDS011;9287;49.456;11.064;2023-05-14T04:43:07;6.37;;;5.77;;
18322;SDS011;9287;49.456;11.064;2023-05-14T04:45:36;7.97;;;6.03;;
18322;SDS011;9287;49.456;11.064;2023-05-14T04:48:04;6.80;;;6.10;;
18322;SDS011;9287;49.456;11.064;2023-05-14T04:50:33;5.83;;;5.33;;
18322;SDS011;9287;49.456;11.064;2023-05-14T04:53:01;5.97;;;5.47;;
18322;SDS011;9287;49.456;11.064;2023-05-14T04:55:29;6.43;;;5.83;;
18322;SDS011;9287;49.456;11.064;2023-05-14T04:58:00;7.03;;;5.63;;
18322;SDS011;9287;49.456;11.064;2023-05-14T05:00:28;6.50;;;5.90;;
18322;SDS011;9287;49.456;11.064;2023-05-14T05:03:01;7.73;;;7.03;;
18322;SDS011;9287;49.456;11.064;2023-05-14T05:05:29;6.87;;;6.27;;
18322;SDS011;9287;49.456;11.064;2023-05-14T05:07:58;6.27;;;5.77;;
18322;SDS011;9287;49.456;11.064;2023-05-14T05:10:28;6.40;;;5.13;;
18322;SDS011;9287;49.456;11.064;2023-05-14T05:12:56;5.80;;;5.30;;
18322;SDS011;9287;49.456;11.064;2023-05-14T05:15:30;6.97;;;6.27;;
18322;SDS011;9287;49.456;11.064;2023-05-14T05:18:00;6.50;;;5.90;;
18322;SDS011;9287;49.456;11.064;2023-05-14T05:20:28;5.67;;;5.17;;
18322;SDS011;9287;49.456;11.064;2023-05-14T05:22:57;6.87;;;5.93;;
18322;SDS011;9287;49.456;11.064;2023-05-14T05:25:28;5.70;;;5.20;;
18322;SDS011;9287;49.456;11.064;2023-05-14T05:27:56;5.97;;;5.40;;
18322;SDS011;9287;49.456;11.064;2023-05-14T05:30:24;6.00;;;5.40;;
18322;SDS011;9287;49.456;11.064;2023-05-14T05:32:53;6.10;;;5.60;;
18322;SDS011;9287;49.456;11.064;2023-05-14T05:35:22;6.73;;;6.10;;
18322;SDS011;9287;49.456;11.064;2023-05-14T05:37:51;5.60;;;5.10;;
18322;SDS011;9287;49.456;11.064;2023-05-14T05:40:20;5.87;;;5.43;;
18322;SDS011;9287;49.456;11.064;2023-05-14T05:42:52;6.37;;;5.77;;
18322;SDS011;9287;49.456;11.064;2023-05-14T05:45:20;6.97;;;6.10;;
18322;SDS011;9287;49.456;11.064;2023-05-14T05:47:49;6.17;;;5.57;;
18322;SDS011;9287;49.456;11.064;2023-05-14T05:50:19;6.70;;;6.10;;
18322;SDS011;9287;49.456;11.064;2023-05-14T05:52:48;6.13;;;5.57;;
18322;SDS011;9287;49.456;11.064;2023-05-14T05:55:20;6.90;;;5.83;;
18322;SDS011;9287;49.456;11.064;2023-05-14T05:57:48;6.73;;;6.13;;
18322;SDS011;9287;49.456;11.064;2023-05-14T06:00:17;6.83;;;6.13;;
18322;SDS011;9287;49.456;11.064;2023-05-14T06:02:46;5.63;;;5.13;;
18322;SDS011;9287;49.456;11.064;2023-05-14T06:05:15;6.20;;;5.63;;
18322;SDS011;9287;49.456;11.064;2023-05-14T06:07:48;6.13;;;5.53;;
18322;SDS011;9287;49.456;11.064;2023-05-14T06:10:16;6.03;;;5.50;;
18322;SDS011;9287;49.456;11.064;2023-05-14T06:12:45;5.87;;;5.27;;
18322;SDS011;9287;49.456;11.064;2023-05-14T06:15:16;5.27;;;4.77;;
18322;SDS011;9287;49.456;11.064;2023-05-14T06:17:44;6.50;;;5.90;;
18322;SDS011;9287;49.456;11.064;2023-05-14T06:20:12;5.50;;;5.10;;
18322;SDS011;9287;49.456;11.064;2023-05-14T06:22:41;5.70;;;5.13;;
18322;SDS011;9287;49.456;11.064;2023-05-14T06:25:11;5.63;;;5.13;;
18322;SDS011;9287;49.456;11.064;2023-05-14T06:27:41;6.47;;;5.87;;
18322;SDS011;9287;49.456;11.064;2023-05-14T06:30:13;6.07;;;5.20;;
18322;SDS011;9287;49.456;11.064;2023-05-14T06:32:44;6.43;;;5.43;;
18322;SDS011;9287;49.456;11.064;2023-05-14T06:35:13;5.00;;;4.50;;
18322;SDS011;9287;49.456;11.064;2023-05-14T06:37:44;5.57;;;5.17;;
18322;SDS011;9287;49.456;11.064;2023-05-14T06:40:15;5.53;;;5.03;;
18322;SDS011;9287;49.456;11.064;2023-05-14T06:42:43;6.03;;;5.43;;
18322;SDS011;9287;49.456;11.064;2023-05-14T06:45:11;5.53;;;5.03;;
18322;SDS011;9287;49.456;11.064;2023-05-14T06:47:40;5.70;;;5.20;;
18322;SDS011;9287;49.456;11.064;2023-05-14T06:50:09;5.73;;;5.23;;
18322;SDS011;9287;49.456;11.064;2023-05-14T06:52:39;5.00;;;4.60;;
18322;SDS011;9287;49.456;11.064;2023-05-14T06:55:09;5.80;;;5.30;;
18322;SDS011;9287;49.456;11.064;2023-05-14T06:57:41;5.70;;;5.20;;
18322;SDS011;9287;49.456;11.064;2023-05-14T07:00:10;5.80;;;5.30;;
18322;SDS011;9287;49.456;11.064;2023-05-14T07:02:40;5.87;;;5.37;;
18322;SDS011;9287;49.456;11.064;2023-05-14T07:05:08;6.83;;;5.80;;
18322;SDS011;9287;49.456;11.064;2023-05-14T07:07:37;5.73;;;5.20;;
18322;SDS011;9287;49.456;11.064;2023-05-14T07:10:05;5.60;;;5.10;;
18322;SDS011;9287;49.456;11.064;2023-05-14T07:12:37;6.73;;;5.63;;
18322;SDS011;9287;49.456;11.064;2023-05-14T07:15:08;5.53;;;5.03;;
18322;SDS011;9287;49.456;11.064;2023-05-14T07:17:38;5.53;;;5.03;;
18322;SDS011;9287;49.456;11.064;2023-05-14T07:20:12;6.73;;;5.20;;
18322;SDS011;9287;49.456;11.064;2023-05-14T07:22:42;5.30;;;4.80;;
18322;SDS011;9287;49.456;11.064;2023-05-14T07:25:13;4.53;;;4.10;;
18322;SDS011;9287;49.456;11.064;2023-05-14T07:27:41;5.23;;;4.73;;
18322;SDS011;9287;49.456;11.064;2023-05-14T07:30:15;4.93;;;4.53;;
18322;SDS011;9287;49.456;11.064;2023-05-14T07:32:45;5.07;;;4.57;;
18322;SDS011;9287;49.456;11.064;2023-05-14T07:35:14;5.27;;;4.83;;
18322;SDS011;9287;49.456;11.064;2023-05-14T07:37:55;5.37;;;4.87;;
18322;SDS011;9287;49.456;11.064;2023-05-14T07:40:25;4.77;;;4.37;;
18322;SDS011;9287;49.456;11.064;2023-05-14T07:42:57;4.67;;;4.27;;
18322;SDS011;9287;49.456;11.064;2023-05-14T07:45:28;4.83;;;4.43;;
18322;SDS011;9287;49.456;11.064;2023-05-14T07:48:07;5.17;;;4.50;;
18322;SDS011;9287;49.456;11.064;2023-05-14T07:50:39;4.07;;;3.77;;
18322;SDS011;9287;49.456;11.064;2023-05-14T07:53:09;4.10;;;3.70;;
18322;SDS011;9287;49.456;11.064;2023-05-14T07:55:41;4.07;;;3.67;;
18322;SDS011;9287;49.456;11.064;2023-05-14T07:58:11;4.00;;;3.70;;
18322;SDS011;9287;49.456;11.064;2023-05-14T08:00:43;4.10;;;3.80;;
18322;SDS011;9287;49.456;11.064;2023-05-14T08:03:12;3.43;;;3.13;;
18322;SDS011;9287;49.456;11.064;2023-05-14T08:05:41;3.60;;;3.30;;
18322;SDS011;9287;49.456;11.064;2023-05-14T08:08:16;3.60;;;3.30;;
18322;SDS011;9287;49.456;11.064;2023-05-14T08:10:47;4.73;;;4.03;;
18322;SDS011;9287;49.456;11.064;2023-05-14T08:13:15;4.10;;;3.70;;
18322;SDS011;9287;49.456;11.064;2023-05-14T08:15:52;4.17;;;3.87;;
18322;SDS011;9287;49.456;11.064;2023-05-14T08:18:20;4.80;;;3.97;;
18322;SDS011;9287;49.456;11.064;2023-05-14T08:20:52;3.63;;;3.37;;
18322;SDS011;9287;49.456;11.064;2023-05-14T08:23:21;5.83;;;4.03;;
18322;SDS011;9287;49.456;11.064;2023-05-14T08:25:49;5.33;;;4.60;;
18322;SDS011;9287;49.456;11.064;2023-05-14T08:28:19;5.00;;;4.60;;
18322;SDS011;9287;49.456;11.064;2023-05-14T08:30:48;4.57;;;4.17;;
18322;SDS011;9287;49.456;11.064;2023-05-14T08:33:19;4.47;;;3.97;;
18322;SDS011;9287;49.456;11.064;2023-05-14T08:35:55;5.27;;;4.77;;
18322;SDS011;9287;49.456;11.064;2023-05-14T08:38:25;4.30;;;3.90;;
18322;SDS011;9287;49.456;11.064;2023-05-14T08:40:55;4.57;;;4.10;;
18322;SDS011;9287;49.456;11.064;2023-05-14T08:43:25;4.87;;;4.47;;
18322;SDS011;9287;49.456;11.064;2023-05-14T08:45:56;4.93;;;4.37;;
18322;SDS011;9287;49.456;11.064;2023-05-14T08:48:28;4.83;;;3.90;;
18322;SDS011;9287;49.456;11.064;2023-05-14T08:51:00;5.27;;;4.27;;
18322;SDS011;9287;49.456;11.064;2023-05-14T08:53:30;5.10;;;4.60;;
18322;SDS011;9287;49.456;11.064;2023-05-14T08:55:58;4.00;;;3.67;;
18322;SDS011;9287;49.456;11.064;2023-05-14T08:58:31;4.60;;;4.17;;
18322;SDS011;9287;49.456;11.064;2023-05-14T09:01:00;4.37;;;3.97;;
18322;SDS011;9287;49.456;11.064;2023-05-14T09:03:29;5.10;;;4.43;;
18322;SDS011;9287;49.456;11.064;2023-05-14T09:05:57;4.30;;;3.90;;
18322;SDS011;9287;49.456;11.064;2023-05-14T09:08:26;4.27;;;3.70;;
18322;SDS011;9287;49.456;11.064;2023-05-14T09:10:57;4.53;;;4.13;;
18322;SDS011;9287;49.456;11.064;2023-05-14T09:13:24;4.70;;;3.83;;
18322;SDS011;9287;49.456;11.064;2023-05-14T09:15:53;4.77;;;4.37;;
18322;SDS011;9287;49.456;11.064;2023-05-14T09:18:24;4.10;;;3.73;;
18322;SDS011;9287;49.456;11.064;2023-05-14T09:20:52;4.70;;;4.23;;
18322;SDS011;9287;49.456;11.064;2023-05-14T09:23:21;4.87;;;4.47;;
18322;SDS011;9287;49.456;11.064;2023-05-14T09:25:51;4.28;;;3.88;;
18322;SDS011;9287;49.456;11.064;2023-05-14T09:28:19;8.32;;;4.00;;
18322;SDS011;9287;49.456;11.064;2023-05-14T09:30:51;3.80;;;3.50;;
18322;SDS011;9287;49.456;11.064;2023-05-14T09:33:28;3.85;;;3.45;;
18322;SDS011;9287;49.456;11.064;2023-05-14T09:35:58;3.95;;;3.47;;
18322;SDS011;9287;49.456;11.064;2023-05-14T09:38:27;4.00;;;3.70;;
18322;SDS011;9287;49.456;11.064;2023-05-14T09:40:58;3.85;;;3.28;;
18322;SDS011;9287;49.456;11.064;2023-05-14T09:43:27;5.65;;;3.58;;
18322;SDS011;9287;49.456;11.064;2023-05-14T09:45:55;3.80;;;3.38;;
18322;SDS011;9287;49.456;11.064;2023-05-14T09:48:23;2.92;;;2.72;;
18322;SDS011;9287;49.456;11.064;2023-05-14T09:50:53;2.92;;;2.72;;
18322;SDS011;9287;49.456;11.064;2023-05-14T09:53:21;3.65;;;2.72;;
18322;SDS011;9287;49.456;11.064;2023-05-14T09:55:50;2.90;;;2.70;;
18322;SDS011;9287;49.456;11.064;2023-05-14T09:58:20;2.75;;;2.55;;
18322;SDS011;9287;49.456;11.064;2023-05-14T10:00:58;4.03;;;2.75;;
18322;SDS011;9287;49.456;11.064;2023-05-14T10:03:31;2.75;;;2.53;;
18322;SDS011;9287;49.456;11.064;2023-05-14T10:06:03;3.35;;;2.85;;
18322;SDS011;9287;49.456;11.064;2023-05-14T10:08:34;2.42;;;2.22;;
18322;SDS011;9287;49.456;11.064;2023-05-14T10:11:09;2.65;;;2.45;;
18322;SDS011;9287;49.456;11.064;2023-05-14T10:13:44;3.03;;;2.83;;
18322;SDS011;9287;49.456;11.064;2023-05-14T10:16:18;3.05;;;2.78;;
18322;SDS011;9287;49.456;11.064;2023-05-14T10:18:51;3.35;;;2.88;;
18322;SDS011;9287;49.456;11.064;2023-05-14T10:21:24;2.58;;;2.38;;
18322;SDS011;9287;49.456;11.064;2023-05-14T10:23:56;3.35;;;3.05;;
18322;SDS011;9287;49.456;11.064;2023-05-14T10:26:26;2.55;;;2.35;;
18322;SDS011;9287;49.456;11.064;2023-05-14T10:28:58;2.53;;;2.28;;
18322;SDS011;9287;49.456;11.064;2023-05-14T10:37:08;3.15;;;2.38;;
18322;SDS011;9287;49.456;11.064;2023-05-14T10:39:41;2.58;;;2.38;;
18322;SDS011;9287;49.456;11.064;2023-05-14T10:42:13;4.70;;;3.28;;
18322;SDS011;9287;49.456;11.064;2023-05-14T10:44:46;2.63;;;2.42;;
18322;SDS011;9287;49.456;11.064;2023-05-14T10:47:15;3.00;;;2.75;;
18322;SDS011;9287;49.456;11.064;2023-05-14T10:49:44;2.70;;;2.50;;
18322;SDS011;9287;49.456;11.064;2023-05-14T10:52:28;2.70;;;2.50;;
18322;SDS011;9287;49.456;11.064;2023-05-14T10:54:56;2.75;;;2.55;;
18322;SDS011;9287;49.456;11.064;2023-05-14T10:57:30;2.78;;;2.58;;
18322;SDS011;9287;49.456;11.064;2023-05-14T11:00:01;3.20;;;3.00;;
18322;SDS011;9287;49.456;11.064;2023-05-14T11:02:36;2.25;;;2.10;;
18322;SDS011;9287;49.456;11.064;2023-05-14T11:05:11;3.22;;;3.03;;
18322;SDS011;9287;49.456;11.064;2023-05-14T11:07:43;2.10;;;1.90;;
18322;SDS011;9287;49.456;11.064;2023-05-14T11:10:13;2.70;;;2.50;;
18322;SDS011;9287;49.456;11.064;2023-05-14T11:12:43;2.03;;;1.92;;
18322;SDS011;9287;49.456;11.064;2023-05-14T11:15:13;1.95;;;1.85;;
18322;SDS011;9287;49.456;11.064;2023-05-14T11:17:43;2.63;;;2.42;;
18322;SDS011;9287;49.456;11.064;2023-05-14T11:20:12;2.20;;;2.10;;
18322;SDS011;9287;49.456;11.064;2023-05-14T11:22:45;1.83;;;1.73;;
18322;SDS011;9287;49.456;11.064;2023-05-14T11:25:14;2.65;;;2.45;;
18322;SDS011;9287;49.456;11.064;2023-05-14T11:27:45;2.95;;;2.20;;
18322;SDS011;9287;49.456;11.064;2023-05-14T11:30:14;2.17;;;2.08;;
18322;SDS011;9287;49.456;11.064;2023-05-14T11:32:43;3.10;;;2.65;;
18322;SDS011;9287;49.456;11.064;2023-05-14T11:35:11;2.25;;;2.10;;
18322;SDS011;9287;49.456;11.064;2023-05-14T11:37:40;2.72;;;2.45;;
18322;SDS011;9287;49.456;11.064;2023-05-14T11:40:14;2.85;;;2.25;;
18322;SDS011;9287;49.456;11.064;2023-05-14T11:45:23;2.67;;;2.50;;
18322;SDS011;9287;49.456;11.064;2023-05-14T11:47:52;3.75;;;2.38;;
18322;SDS011;9287;49.456;11.064;2023-05-14T11:50:20;2.43;;;2.33;;
18322;SDS011;9287;49.456;11.064;2023-05-14T11:52:49;2.37;;;2.27;;
18322;SDS011;9287;49.456;11.064;2023-05-14T11:55:18;2.70;;;2.50;;
18322;SDS011;9287;49.456;11.064;2023-05-14T11:57:46;2.43;;;2.17;;
18322;SDS011;9287;49.456;11.064;2023-05-14T12:00:14;2.27;;;2.07;;
18322;SDS011;9287;49.456;11.064;2023-05-14T12:03:00;2.07;;;1.87;;
18322;SDS011;9287;49.456;11.064;2023-05-14T12:08:25;2.70;;;2.50;;
18322;SDS011;9287;49.456;11.064;2023-05-14T12:10:56;2.53;;;2.33;;
18322;SDS011;9287;49.456;11.064;2023-05-14T12:13:25;2.37;;;2.27;;
18322;SDS011;9287;49.456;11.064;2023-05-14T12:15:54;2.40;;;2.20;;
18322;SDS011;9287;49.456;11.064;2023-05-14T12:18:23;2.47;;;2.27;;
18322;SDS011;9287;49.456;11.064;2023-05-14T12:31:29;2.23;;;2.10;;
18322;SDS011;9287;49.456;11.064;2023-05-14T12:33:57;2.30;;;2.20;;
18322;SDS011;9287;49.456;11.064;2023-05-14T12:36:26;3.85;;;2.58;;
18322;SDS011;9287;49.456;11.064;2023-05-14T12:38:56;2.58;;;2.45;;
18322;SDS011;9287;49.456;11.064;2023-05-14T12:41:25;3.00;;;2.58;;
18322;SDS011;9287;49.456;11.064;2023-05-14T12:43:53;3.33;;;2.60;;
18322;SDS011;9287;49.456;11.064;2023-05-14T12:46:21;2.27;;;2.07;;
18322;SDS011;9287;49.456;11.064;2023-05-14T12:48:50;3.42;;;2.58;;
18322;SDS011;9287;49.456;11.064;2023-05-14T12:51:18;2.60;;;2.40;;
18322;SDS011;9287;49.456;11.064;2023-05-14T12:53:46;2.20;;;2.07;;
18322;SDS011;9287;49.456;11.064;2023-05-14T12:56:17;2.30;;;2.20;;
18322;SDS011;9287;49.456;11.064;2023-05-14T12:58:45;2.72;;;2.53;;
18322;SDS011;9287;49.456;11.064;2023-05-14T13:01:15;2.30;;;2.20;;
18322;SDS011;9287;49.456;11.064;2023-05-14T13:03:43;2.30;;;2.20;;
18322;SDS011;9287;49.456;11.064;2023-05-14T13:06:14;3.43;;;2.37;;
18322;SDS011;9287;49.456;11.064;2023-05-14T13:08:43;2.70;;;2.45;;
18322;SDS011;9287;49.456;11.064;2023-05-14T13:11:12;2.17;;;2.00;;
18322;SDS011;9287;49.456;11.064;2023-05-14T13:13:40;2.40;;;2.28;;
18322;SDS011;9287;49.456;11.064;2023-05-14T13:16:09;2.40;;;2.20;;
18322;SDS011;9287;49.456;11.064;2023-05-14T13:18:42;2.42;;;2.10;;
18322;SDS011;9287;49.456;11.064;2023-05-14T13:21:17;1.83;;;1.73;;
18322;SDS011;9287;49.456;11.064;2023-05-14T13:23:45;3.42;;;1.77;;
18322;SDS011;9287;49.456;11.064;2023-05-14T13:26:15;1.98;;;1.88;;
18322;SDS011;9287;49.456;11.064;2023-05-14T13:28:43;2.40;;;2.17;;
18322;SDS011;9287;49.456;11.064;2023-05-14T13:31:12;2.20;;;2.00;;
18322;SDS011;9287;49.456;11.064;2023-05-14T13:33:41;2.45;;;2.33;;
18322;SDS011;9287;49.456;11.064;2023-05-14T13:36:11;2.63;;;2.15;;
18322;SDS011;9287;49.456;11.064;2023-05-14T13:38:45;2.53;;;2.33;;
18322;SDS011;9287;49.456;11.064;2023-05-14T13:41:14;2.67;;;2.47;;
18322;SDS011;9287;49.456;11.064;2023-05-14T13:43:41;2.13;;;1.98;;
18322;SDS011;9287;49.456;11.064;2023-05-14T13:46:09;2.10;;;2.00;;
18322;SDS011;9287;49.456;11.064;2023-05-14T13:48:37;2.78;;;1.70;;
18322;SDS011;9287;49.456;11.064;2023-05-14T13:51:05;3.28;;;1.70;;
18322;SDS011;9287;49.456;11.064;2023-05-14T13:53:33;2.55;;;1.80;;
18322;SDS011;9287;49.456;11.064;2023-05-14T13:56:03;2.15;;;2.05;;
18322;SDS011;9287;49.456;11.064;2023-05-14T13:58:31;1.88;;;1.77;;
18322;SDS011;9287;49.456;11.064;2023-05-14T14:01:01;1.95;;;1.85;;
18322;SDS011;9287;49.456;11.064;2023-05-14T14:03:29;1.73;;;1.63;;
18322;SDS011;9287;49.456;11.064;2023-05-14T14:05:56;1.75;;;1.65;;
18322;SDS011;9287;49.456;11.064;2023-05-14T14:08:25;1.88;;;1.77;;
18322;SDS011;9287;49.456;11.064;2023-05-14T14:10:53;1.65;;;1.55;;
18322;SDS011;9287;49.456;11.064;2023-05-14T14:13:23;2.67;;;1.67;;
18322;SDS011;9287;49.456;11.064;2023-05-14T14:15:51;1.85;;;1.75;;
18322;SDS011;9287;49.456;11.064;2023-05-14T14:18:20;1.83;;;1.73;;
18322;SDS011;9287;49.456;11.064;2023-05-14T14:20:49;2.80;;;1.50;;
18322;SDS011;9287;49.456;11.064;2023-05-14T14:23:18;1.60;;;1.50;;
18322;SDS011;9287;49.456;11.064;2023-05-14T14:25:46;2.03;;;1.92;;
18322;SDS011;9287;49.456;11.064;2023-05-14T14:28:13;1.90;;;1.80;;
18322;SDS011;9287;49.456;11.064;2023-05-14T14:30:43;2.13;;;1.67;;
18322;SDS011;9287;49.456;11.064;2023-05-14T14:33:11;1.83;;;1.73;;
18322;SDS011;9287;49.456;11.064;2023-05-14T14:35:39;2.42;;;1.70;;
18322;SDS011;9287;49.456;11.064;2023-05-14T14:38:06;2.13;;;1.90;;
18322;SDS011;9287;49.456;11.064;2023-05-14T14:40:34;1.92;;;1.70;;
18322;SDS011;9287;49.456;11.064;2023-05-14T14:43:02;1.77;;;1.40;;
18322;SDS011;9287;49.456;11.064;2023-05-14T14:45:30;2.00;;;1.90;;
18322;SDS011;9287;49.456;11.064;2023-05-14T14:50:59;2.13;;;1.98;;
18322;SDS011;9287;49.456;11.064;2023-05-14T14:53:29;1.77;;;1.67;;
18322;SDS011;9287;49.456;11.064;2023-05-14T14:55:59;2.60;;;2.00;;
18322;SDS011;9287;49.456;11.064;2023-05-14T14:58:30;1.95;;;1.60;;
18322;SDS011;9287;49.456;11.064;2023-05-14T15:00:58;1.60;;;1.50;;
18322;SDS011;9287;49.456;11.064;2023-05-14T15:03:30;2.15;;;1.67;;
18322;SDS011;9287;49.456;11.064;2023-05-14T15:06:02;1.88;;;1.48;;
18322;SDS011;9287;49.456;11.064;2023-05-14T15:08:30;1.48;;;1.38;;
18322;SDS011;9287;49.456;11.064;2023-05-14T15:10:58;1.70;;;1.60;;
18322;SDS011;9287;49.456;11.064;2023-05-14T15:13:26;2.22;;;2.13;;
18322;SDS011;9287;49.456;11.064;2023-05-14T15:15:54;3.40;;;1.90;;
18322;SDS011;9287;49.456;11.064;2023-05-14T15:18:22;2.20;;;2.10;;
18322;SDS011;9287;49.456;11.064;2023-05-14T15:20:53;1.95;;;1.85;;
18322;SDS011;9287;49.456;11.064;2023-05-14T15:23:21;4.00;;;2.17;;
18322;SDS011;9287;49.456;11.064;2023-05-14T15:25:49;2.15;;;1.92;;
18322;SDS011;9287;49.456;11.064;2023-05-14T15:28:18;3.08;;;2.35;;